KTTN/TTN METAR and TAF weather

Enter ICAO airport designator
Station Type Date Time Source
KTTN METAR 2021/08/04 18:53 UTC NOAA

KTTN 041853Z 10006KT 10SM CLR 23/16 A3010 RMK AO2 SLP187 T02330161


Station Type Date Time Source
KTTN Decoded METAR 2021/08/04 18:53 UTC NOAA

TRENTON MERCER COUNTY AIRPORT , NJ, United States (KTTN) 40-17N 074-49W 59M
Aug 04, 2021 - 02:53 PM EDT / 2021.08.04 1853 UTC
Wind: from the E (100 degrees) at 7 MPH (6 KT):0
Visibility: 10 mile(s):0
Sky conditions: clear
Temperature: 73.9 F (23.3 C)
Dew Point: 61.0 F (16.1 C)
Relative Humidity: 63%
Pressure (altimeter): 30.1 in. Hg (1019 hPa)
ob: KTTN 041853Z 10006KT 10SM CLR 23/16 A3010 RMK AO2 SLP187 T02330161
cycle: 19

Station Type Date Time Source
KTTN TAF 2021/08/04 18:22 UTC NOAA

TAF KTTN 041720Z 0418/0518 VRB06KT P6SM OVC200
FM050200 04005KT P6SM FEW060 BKN200
FM050900 VRB04KT P6SM SCT060

Example: see airport list